Time;durP1;ratioP1;P1;durP2;ratioP2;P2;SDS_P1;SDS_P2;PMS_P1;PMS_P2;Temp;Humidity;BMP_temperature;BMP_pressure;BME280_temperature;BME280_humidity;BME280_pressure;Samples;Min_cycle;Max_cycle;Signal;HPM_P1;HPM_P2
2021/01/30 00:02:20;;;;;;;107.73;45.90;;;;;;;-2.08;68.83;96892.90;2259806;79;21129;-78
2021/01/30 00:05:21;;;;;;;106.77;49.40;;;;;;;-2.06;69.05;96898.92;2259512;79;21224;-78
2021/01/30 00:08:23;;;;;;;120.27;51.77;;;;;;;-2.08;68.94;96903.53;2260240;79;21364;-78
2021/01/30 00:11:24;;;;;;;105.50;44.67;;;;;;;-2.03;69.22;96899.42;2260224;79;21149;-78
2021/01/30 00:14:25;;;;;;;123.90;51.83;;;;;;;-2.01;69.26;96901.62;2259932;79;21248;-78
2021/01/30 00:17:26;;;;;;;122.67;53.47;;;;;;;-1.97;69.14;96900.88;2260016;79;21407;-78
2021/01/30 00:20:27;;;;;;;126.10;54.40;;;;;;;-1.92;69.33;96892.94;2259289;79;21115;-78
2021/01/30 00:23:28;;;;;;;110.40;46.50;;;;;;;-1.92;69.45;96890.38;2259072;79;21133;-78
2021/01/30 00:26:29;;;;;;;103.13;45.13;;;;;;;-1.88;69.31;96891.33;2259055;79;21157;-78
2021/01/30 00:29:30;;;;;;;96.53;42.60;;;;;;;-1.86;69.25;96887.12;2258875;79;21134;-78
2021/01/30 00:32:31;;;;;;;95.23;40.83;;;;;;;-1.83;69.12;96892.33;2259091;79;21422;-78
2021/01/30 00:35:32;;;;;;;104.10;42.07;;;;;;;-1.79;69.11;96912.05;2259718;79;21408;-78
2021/01/30 00:38:33;;;;;;;99.93;42.70;;;;;;;-1.77;69.06;96912.55;2260082;79;21129;-77
2021/01/30 00:41:35;;;;;;;91.13;40.30;;;;;;;-1.69;69.21;96920.06;2259240;79;21125;-77
2021/01/30 00:44:36;;;;;;;92.20;41.37;;;;;;;-1.67;69.12;96913.72;2258847;79;21117;-78
2021/01/30 00:47:37;;;;;;;85.77;38.53;;;;;;;-1.63;68.98;96905.30;2258975;79;21122;-77
2021/01/30 00:50:38;;;;;;;98.43;41.70;;;;;;;-1.59;68.73;96902.00;2258944;79;21173;-77
2021/01/30 00:53:41;;;;;;;94.13;40.50;;;;;;;-1.54;68.67;96904.28;2258019;79;21748;-78
2021/01/30 00:56:42;;;;;;;98.77;43.17;;;;;;;-1.51;68.60;96898.37;2260860;79;21153;-78
2021/01/30 00:59:43;;;;;;;93.83;42.97;;;;;;;-1.47;68.65;96887.40;2263606;79;21161;-77
2021/01/30 01:02:44;;;;;;;92.83;39.70;;;;;;;-1.51;68.38;96882.61;2262922;79;21141;-77
2021/01/30 01:05:45;;;;;;;96.20;42.13;;;;;;;-1.58;68.48;96884.55;2262594;79;21411;-78
2021/01/30 01:08:46;;;;;;;86.83;38.33;;;;;;;-1.56;68.73;96879.06;2236658;79;21129;-78
2021/01/30 01:11:48;;;;;;;98.53;43.07;;;;;;;-1.60;68.65;96868.29;2264125;79;21315;-78
2021/01/30 01:14:49;;;;;;;90.70;36.43;;;;;;;-1.63;68.64;96872.05;2263749;79;21244;-77
2021/01/30 01:17:50;;;;;;;86.03;38.63;;;;;;;-1.66;68.71;96876.66;2263868;79;21240;-78
2021/01/30 01:20:51;;;;;;;78.07;36.13;;;;;;;-1.69;68.88;96877.86;2263443;79;21248;-77
2021/01/30 01:23:52;;;;;;;78.30;36.10;;;;;;;-1.70;68.82;96871.42;2263157;79;21232;-77
2021/01/30 01:26:54;;;;;;;77.67;33.27;;;;;;;-1.67;68.97;96876.63;2263447;79;21248;-78
2021/01/30 01:29:55;;;;;;;68.60;30.93;;;;;;;-1.67;68.91;96880.45;2263167;79;21308;-78
2021/01/30 01:32:56;;;;;;;66.73;32.80;;;;;;;-1.62;68.75;96884.01;2263274;79;21272;-77
2021/01/30 01:35:57;;;;;;;65.67;27.37;;;;;;;-1.57;68.82;96886.70;2263940;79;21522;-77
2021/01/30 01:38:59;;;;;;;67.23;27.50;;;;;;;-1.55;68.76;96889.75;2264078;79;21249;-78
2021/01/30 01:42:00;;;;;;;57.33;26.33;;;;;;;-1.54;68.72;96880.38;2264115;79;21251;-78
2021/01/30 01:45:01;;;;;;;62.67;27.57;;;;;;;-1.54;68.74;96882.53;2263469;79;21371;-78
2021/01/30 01:48:02;;;;;;;54.77;26.33;;;;;;;-1.49;68.58;96881.38;2263462;79;21713;-77
2021/01/30 01:51:03;;;;;;;55.77;25.03;;;;;;;-1.47;68.54;96881.87;2263443;79;21292;-77
2021/01/30 01:54:05;;;;;;;47.37;23.97;;;;;;;-1.48;68.26;96875.02;2263345;79;21114;-77
2021/01/30 01:57:06;;;;;;;46.17;23.57;;;;;;;-1.52;68.13;96873.20;2261583;79;21641;-79
2021/01/30 02:00:07;;;;;;;48.50;24.70;;;;;;;-1.55;67.87;96862.02;2258832;79;21126;-78
2021/01/30 02:03:08;;;;;;;46.33;24.10;;;;;;;-1.56;67.90;96865.41;2259294;79;21129;-77
2021/01/30 02:06:09;;;;;;;49.40;23.67;;;;;;;-1.58;67.97;96864.08;2259108;79;21117;-78
2021/01/30 02:09:10;;;;;;;46.23;23.33;;;;;;;-1.58;67.52;96862.80;2259944;79;21415;-78
2021/01/30 02:12:11;;;;;;;47.23;23.70;;;;;;;-1.62;67.78;96864.83;2259839;79;21161;-77
2021/01/30 02:15:12;;;;;;;49.10;22.47;;;;;;;-1.69;67.67;96862.51;2259591;79;21145;-77
2021/01/30 02:18:14;;;;;;;52.70;25.03;;;;;;;-1.69;67.90;96869.31;2259848;79;21375;-78
2021/01/30 02:21:15;;;;;;;50.83;24.93;;;;;;;-1.71;67.99;96873.11;2259823;79;21133;-78
2021/01/30 02:24:16;;;;;;;53.23;25.80;;;;;;;-1.68;68.13;96866.80;2260203;79;21118;-78
2021/01/30 02:27:17;;;;;;;53.57;25.57;;;;;;;-1.59;68.09;96865.32;2259659;79;21140;-81
2021/01/30 02:30:19;;;;;;;48.73;25.93;;;;;;;-1.53;67.83;96868.05;2259228;79;21105;-79
2021/01/30 02:33:20;;;;;;;48.17;24.60;;;;;;;-1.52;67.90;96864.25;2259182;79;21308;-79
2021/01/30 02:36:21;;;;;;;45.37;24.43;;;;;;;-1.53;67.75;96862.52;2259181;79;21112;-80
2021/01/30 02:39:22;;;;;;;49.87;24.53;;;;;;;-1.49;67.84;96862.19;2259308;79;21203;-79
2021/01/30 02:42:23;;;;;;;45.43;24.60;;;;;;;-1.49;67.64;96857.06;2259352;79;21526;-79
2021/01/30 02:45:24;;;;;;;50.70;25.07;;;;;;;-1.52;67.81;96864.66;2259034;79;21086;-79
2021/01/30 02:48:26;;;;;;;53.87;26.63;;;;;;;-1.49;68.00;96862.19;2259325;79;21129;-82
2021/01/30 02:51:27;;;;;;;53.27;27.23;;;;;;;-1.43;68.06;96863.63;2258825;79;21529;-79
2021/01/30 02:54:28;;;;;;;57.03;28.07;;;;;;;-1.40;67.83;96859.45;2259786;79;21256;-79
2021/01/30 02:57:29;;;;;;;53.10;26.03;;;;;;;-1.39;67.76;96850.95;2263144;79;21180;-82
2021/01/30 03:00:30;;;;;;;52.40;26.50;;;;;;;-1.37;67.50;96846.73;2267596;79;21502;-79
2021/01/30 03:03:31;;;;;;;57.33;27.83;;;;;;;-1.42;67.46;96848.31;2267134;79;21145;-79
2021/01/30 03:06:36;;;;;;;58.07;27.43;;;;;;;-1.42;67.47;96846.16;2267298;78;21207;-78
2021/01/30 03:09:37;;;;;;;54.13;26.43;;;;;;;-1.41;67.21;96849.17;2267632;79;21129;-81
2021/01/30 03:12:38;;;;;;;55.47;26.17;;;;;;;-1.44;67.36;96855.08;2267268;79;21438;-79
2021/01/30 03:15:39;;;;;;;55.00;28.40;;;;;;;-1.48;67.60;96855.83;2266900;79;21141;-79
2021/01/30 03:18:40;;;;;;;52.10;27.53;;;;;;;-1.49;67.59;96856.66;2267377;79;21395;-79
2021/01/30 03:21:41;;;;;;;51.63;25.00;;;;;;;-1.44;67.58;96856.77;2267184;79;21161;-80
2021/01/30 03:24:45;;;;;;;52.90;27.20;;;;;;;-1.40;67.60;96849.63;2266927;79;21138;-79
2021/01/30 03:27:47;;;;;;;55.33;26.55;;;;;;;-1.35;67.58;96837.82;2267210;79;21247;-81
2021/01/30 03:30:48;;;;;;;48.90;24.97;;;;;;;-1.34;67.40;96832.73;2267014;79;21097;-79
2021/01/30 03:33:49;;;;;;;56.37;27.03;;;;;;;-1.37;67.35;96833.08;2266979;79;21129;-79
2021/01/30 03:36:50;;;;;;;57.70;27.70;;;;;;;-1.38;67.51;96829.66;2267280;79;21153;-81
2021/01/30 03:39:52;;;;;;;52.13;25.83;;;;;;;-1.40;67.37;96830.02;2266866;79;21409;-80
2021/01/30 03:42:53;;;;;;;50.70;26.37;;;;;;;-1.41;67.55;96827.02;2266322;79;21082;-78
2021/01/30 03:45:54;;;;;;;48.90;25.87;;;;;;;-0.07;70.44;96817.36;2266081;79;21141;-81
2021/01/30 03:48:55;;;;;;;48.10;25.83;;;;;;;-0.31;67.32;96815.56;2265324;79;21667;-80
2021/01/30 03:51:56;;;;;;;50.90;26.40;;;;;;;-0.66;67.03;96811.81;2265921;79;21157;-79
2021/01/30 03:54:57;;;;;;;53.90;27.47;;;;;;;-0.65;67.29;96807.55;2265824;79;21411;-80
2021/01/30 03:57:58;;;;;;;51.93;28.07;;;;;;;-0.88;66.94;96807.40;2262471;79;21158;-80
2021/01/30 04:00:59;;;;;;;55.77;27.17;;;;;;;-1.08;67.08;96813.33;2259179;79;21122;-79
2021/01/30 04:04:00;;;;;;;56.03;27.80;;;;;;;-1.19;67.26;96807.94;2259285;79;21098;-79
2021/01/30 04:07:02;;;;;;;56.47;28.47;;;;;;;-1.27;67.53;96809.45;2259937;79;21117;-79
2021/01/30 04:10:03;;;;;;;56.40;28.37;;;;;;;-1.31;67.67;96797.40;2259974;79;21117;-79
2021/01/30 04:13:06;;;;;;;55.90;26.40;;;;;;;-1.37;67.64;96796.83;2259777;79;21169;-78
2021/01/30 04:16:08;;;;;;;57.37;28.27;;;;;;;-1.41;67.75;96791.19;2259762;79;21125;-80
2021/01/30 04:19:09;;;;;;;57.37;28.03;;;;;;;-1.40;67.89;96785.23;2260206;79;21141;-81
2021/01/30 04:22:10;;;;;;;51.20;27.27;;;;;;;-1.43;67.76;96781.33;2260033;79;21122;-79
2021/01/30 04:25:11;;;;;;;51.83;27.00;;;;;;;-1.48;67.93;96777.78;2259556;79;21404;-81
2021/01/30 04:28:12;;;;;;;48.30;25.87;;;;;;;-1.50;68.02;96779.44;2259659;79;21248;-79
2021/01/30 04:31:14;;;;;;;52.03;25.37;;;;;;;-1.53;68.13;96778.49;2259451;79;21296;-80
2021/01/30 04:34:15;;;;;;;48.37;26.27;;;;;;;-1.56;68.39;96780.56;2259482;79;21137;-79
2021/01/30 04:37:16;;;;;;;46.80;24.53;;;;;;;-1.58;68.33;96782.21;2259528;79;21146;-80
2021/01/30 04:40:17;;;;;;;46.67;24.80;;;;;;;-1.58;68.38;96769.42;2258550;79;21160;-79
2021/01/30 04:43:18;;;;;;;51.73;24.97;;;;;;;-1.61;68.42;96761.66;2258787;79;21118;-78
2021/01/30 04:46:19;;;;;;;53.57;26.43;;;;;;;-1.70;68.56;96763.58;2258450;79;21141;-80
2021/01/30 04:49:20;;;;;;;50.27;25.57;;;;;;;-1.71;68.85;96756.73;2258331;79;21435;-81
2021/01/30 04:52:21;;;;;;;47.87;22.47;;;;;;;-1.71;68.97;96759.70;2258316;79;21257;-78
2021/01/30 04:55:22;;;;;;;52.20;24.93;;;;;;;-1.66;68.96;96741.50;2257106;79;21093;-80
2021/01/30 04:58:23;;;;;;;45.00;24.07;;;;;;;-1.71;69.05;96741.80;2258589;79;21594;-79
2021/01/30 05:01:24;;;;;;;46.23;23.30;;;;;;;-1.82;69.31;96734.23;2260981;79;21254;-79
2021/01/30 05:04:25;;;;;;;44.37;23.53;;;;;;;-1.88;69.47;96734.93;2259123;79;21251;-80
2021/01/30 05:07:26;;;;;;;49.90;24.77;;;;;;;-1.92;69.82;96724.17;2261169;79;21137;-81
2021/01/30 05:10:28;;;;;;;44.77;24.33;;;;;;;-1.97;70.09;96716.80;2260911;79;21252;-80
2021/01/30 05:13:29;;;;;;;53.23;25.77;;;;;;;-1.99;70.12;96719.31;2260873;79;21280;-80
2021/01/30 05:16:30;;;;;;;48.47;25.53;;;;;;;-1.96;70.14;96719.39;2261505;79;21461;-78
2021/01/30 05:19:32;;;;;;;53.97;28.67;;;;;;;-1.97;70.30;96707.84;2262087;79;21840;-80
2021/01/30 05:22:33;;;;;;;57.93;27.87;;;;;;;-2.02;70.23;96705.17;2261517;79;21236;-78
2021/01/30 05:25:34;;;;;;;48.00;25.53;;;;;;;-2.03;70.25;96711.52;2261292;79;21868;-77
2021/01/30 05:28:36;;;;;;;49.47;24.53;;;;;;;-2.06;70.49;96708.47;2262581;79;21239;-79
2021/01/30 05:31:37;;;;;;;51.07;26.07;;;;;;;-2.08;70.61;96707.98;2262345;79;21260;-77
2021/01/30 05:34:38;;;;;;;54.03;26.20;;;;;;;-2.05;70.72;96707.64;2261025;79;21102;-78
2021/01/30 05:37:39;;;;;;;49.33;25.60;;;;;;;-2.07;70.69;96707.15;2261902;79;21125;-79
2021/01/30 05:40:40;;;;;;;45.97;23.60;;;;;;;-2.04;70.79;96701.70;2263571;79;21133;-78
2021/01/30 05:43:41;;;;;;;51.10;26.13;;;;;;;-2.09;70.81;96707.11;2263142;79;21435;-77
2021/01/30 05:46:43;;;;;;;54.73;28.60;;;;;;;-2.08;71.09;96698.62;2262460;79;21248;-78
2021/01/30 05:49:44;;;;;;;46.67;26.43;;;;;;;-2.06;71.05;96700.80;2262550;79;21102;-78
2021/01/30 05:52:45;;;;;;;57.40;26.93;;;;;;;-2.04;71.31;96702.98;2262392;79;21307;-77
2021/01/30 05:55:46;;;;;;;50.70;25.20;;;;;;;-2.04;71.20;96705.54;2262367;79;21259;-77
2021/01/30 05:58:48;;;;;;;49.20;24.70;;;;;;;-1.99;71.57;96710.77;2262381;79;21582;-78
2021/01/30 06:01:49;;;;;;;46.67;25.53;;;;;;;-2.04;71.39;96698.28;2262205;79;21220;-77
2021/01/30 06:04:50;;;;;;;45.17;25.00;;;;;;;-2.10;71.58;96705.79;2262041;79;21430;-77
2021/01/30 06:07:52;;;;;;;40.80;23.50;;;;;;;-2.10;71.65;96714.33;2262807;79;21322;-78
2021/01/30 06:10:53;;;;;;;53.73;27.97;;;;;;;-2.08;71.78;96711.40;2262824;79;21243;-77
2021/01/30 06:13:54;;;;;;;51.77;27.30;;;;;;;-2.13;71.85;96712.97;2261610;79;21263;-76
2021/01/30 06:16:59;;;;;;;42.80;23.33;;;;;;;-2.16;72.01;96708.19;2261827;79;21828;-77
2021/01/30 06:20:00;;;;;;;44.27;22.23;;;;;;;-2.15;72.22;96704.80;2261666;79;21574;-77
2021/01/30 06:23:03;;;;;;;42.83;23.00;;;;;;;-2.18;72.23;96699.20;2261576;79;21272;-77
2021/01/30 06:26:04;;;;;;;43.13;21.80;;;;;;;-2.19;72.37;96697.47;2261453;79;21248;-76
2021/01/30 06:29:05;;;;;;;46.07;23.90;;;;;;;-2.22;72.38;96699.94;2261627;79;21283;-77
2021/01/30 06:32:06;;;;;;;46.40;23.40;;;;;;;-2.22;72.51;96699.08;2261743;79;21284;-78
2021/01/30 06:35:07;;;;;;;43.57;24.53;;;;;;;-2.20;72.58;96691.91;2262032;79;21289;-77
2021/01/30 06:38:08;;;;;;;48.97;25.03;;;;;;;-2.21;72.65;96693.14;2262496;79;21600;-77
2021/01/30 06:41:09;;;;;;;47.90;23.93;;;;;;;-2.20;72.71;96682.95;2263110;79;21259;-76
2021/01/30 06:44:12;;;;;;;49.00;24.23;;;;;;;-2.18;72.87;96674.91;2261841;79;21256;-76
2021/01/30 06:47:13;;;;;;;49.50;25.67;;;;;;;-2.14;72.82;96670.34;2263371;79;21126;-76
2021/01/30 06:50:14;;;;;;;46.90;24.93;;;;;;;-2.11;72.72;96661.47;2262318;79;21440;-77
2021/01/30 06:53:15;;;;;;;47.37;24.60;;;;;;;-2.06;72.73;96649.67;2262216;79;21279;-76
2021/01/30 06:56:16;;;;;;;46.30;24.17;;;;;;;-2.00;72.67;96656.22;2262280;79;21259;-76
2021/01/30 06:59:18;;;;;;;52.80;26.43;;;;;;;-1.99;72.71;96646.45;2262734;79;21311;-78
2021/01/30 07:02:19;;;;;;;44.90;22.73;;;;;;;-1.95;72.74;96639.30;2262745;79;21367;-77
2021/01/30 07:05:20;;;;;;;45.07;24.30;;;;;;;-1.92;72.60;96620.20;2262702;79;21248;-77
2021/01/30 07:08:22;;;;;;;49.00;25.00;;;;;;;-1.89;72.66;96625.80;2262429;79;21097;-77
2021/01/30 07:11:23;;;;;;;47.40;24.80;;;;;;;-1.87;72.85;96615.20;2262234;79;21169;-76
2021/01/30 07:14:24;;;;;;;50.27;25.00;;;;;;;-1.94;72.72;96607.80;2263035;79;21122;-77
2021/01/30 07:17:25;;;;;;;47.10;26.73;;;;;;;-2.00;73.05;96595.27;2262890;79;21114;-76
2021/01/30 07:20:26;;;;;;;45.97;23.83;;;;;;;-1.92;73.40;96597.61;2262385;79;21547;-77
2021/01/30 07:23:27;;;;;;;46.23;25.63;;;;;;;-1.84;73.40;96600.34;2260623;79;21121;-76
2021/01/30 07:26:28;;;;;;;45.33;23.53;;;;;;;-1.82;73.16;96596.13;2262373;79;21482;-76
2021/01/30 07:29:29;;;;;;;46.20;26.17;;;;;;;-1.82;73.16;96602.52;2262227;79;21246;-76
2021/01/30 07:32:30;;;;;;;44.33;22.50;;;;;;;-1.79;73.19;96598.76;2262145;79;21280;-77
2021/01/30 07:35:31;;;;;;;47.70;25.73;;;;;;;-1.77;73.09;96604.36;2261583;79;21248;-76
2021/01/30 07:38:32;;;;;;;47.87;24.80;;;;;;;-1.82;73.17;96605.08;2261445;79;21232;-76
2021/01/30 07:41:33;;;;;;;51.63;27.33;;;;;;;-1.88;72.92;96601.97;2262636;79;21248;-76
2021/01/30 07:44:34;;;;;;;54.40;27.07;;;;;;;-1.84;73.24;96597.78;2262658;79;21495;-76
2021/01/30 07:47:36;;;;;;;52.43;26.30;;;;;;;-1.82;73.01;96601.25;2262898;79;21113;-76
2021/01/30 07:50:37;;;;;;;57.13;29.17;;;;;;;-1.79;73.25;96594.92;2262403;79;21252;-76
2021/01/30 07:53:38;;;;;;;54.37;28.73;;;;;;;-1.85;73.33;96590.95;2261953;79;21272;-75
2021/01/30 07:56:39;;;;;;;59.73;33.23;;;;;;;-1.84;73.44;96592.26;2261758;79;21240;-77
2021/01/30 07:59:40;;;;;;;56.37;28.97;;;;;;;-1.82;73.62;96587.18;2263782;79;21184;-77
2021/01/30 08:02:41;;;;;;;58.77;31.70;;;;;;;-1.79;73.46;96578.30;2265213;79;21153;-77
2021/01/30 08:05:42;;;;;;;57.03;28.90;;;;;;;-1.81;73.33;96577.41;2264817;79;21117;-77
2021/01/30 08:08:44;;;;;;;52.93;27.73;;;;;;;-1.75;73.44;96569.45;2265764;79;21141;-77
2021/01/30 08:11:45;;;;;;;66.73;32.57;;;;;;;-1.66;73.44;96575.23;2266078;79;21145;-76
2021/01/30 08:14:46;;;;;;;60.27;33.07;;;;;;;-1.58;73.33;96568.59;2264974;79;21482;-76
2021/01/30 08:17:47;;;;;;;64.90;35.67;;;;;;;-1.51;73.27;96569.17;2265058;79;21232;-76
2021/01/30 08:20:48;;;;;;;68.27;34.40;;;;;;;-1.46;73.08;96566.30;2265614;79;21121;-76
2021/01/30 08:23:49;;;;;;;59.10;30.27;;;;;;;-1.36;72.96;96563.53;2263300;79;21175;-76
2021/01/30 08:26:51;;;;;;;56.97;29.73;;;;;;;-1.26;72.74;96569.70;2264516;79;21236;-78
2021/01/30 08:29:52;;;;;;;60.17;31.23;;;;;;;-1.25;72.85;96572.30;2264705;79;21125;-76
2021/01/30 08:32:53;;;;;;;57.73;30.00;;;;;;;-1.15;72.61;96578.47;2263960;79;21316;-76
2021/01/30 08:35:55;;;;;;;63.40;34.10;;;;;;;-1.01;72.48;96575.78;2264184;79;21259;-77
2021/01/30 08:38:56;;;;;;;55.27;28.57;;;;;;;-0.90;72.38;96574.30;2265389;79;21153;-77
2021/01/30 08:41:58;;;;;;;61.27;29.50;;;;;;;-0.82;72.01;96570.64;2266129;79;21497;-77
2021/01/30 08:44:59;;;;;;;56.70;30.93;;;;;;;-0.82;71.76;96574.06;2264916;79;21206;-77
2021/01/30 08:48:00;;;;;;;50.60;26.43;;;;;;;-0.77;71.83;96570.31;2265305;79;21132;-79
2021/01/30 08:51:01;;;;;;;62.83;31.17;;;;;;;-0.70;71.63;96573.02;2263665;79;21165;-77
2021/01/30 08:54:03;;;;;;;77.23;36.17;;;;;;;-0.59;71.60;96560.83;2264683;79;21165;-77
2021/01/30 08:57:04;;;;;;;80.60;38.77;;;;;;;-0.49;71.41;96560.16;2265896;79;21137;-78
2021/01/30 09:00:05;;;;;;;74.23;36.17;;;;;;;-0.55;71.10;96569.02;2259406;79;21157;-77
2021/01/30 09:03:06;;;;;;;81.27;39.07;;;;;;;-0.57;71.11;96570.69;2258314;79;21530;-78
2021/01/30 09:06:07;;;;;;;71.00;34.97;;;;;;;-0.69;71.20;96569.63;2258189;79;21134;-78
2021/01/30 09:09:08;;;;;;;73.47;36.77;;;;;;;-0.74;71.42;96572.52;2258107;79;21157;-78
2021/01/30 09:12:10;;;;;;;83.73;43.23;;;;;;;-0.72;71.28;96575.11;2258454;79;21162;-77
2021/01/30 09:15:11;;;;;;;82.23;38.77;;;;;;;-0.70;71.54;96574.72;2258441;79;21723;-78
2021/01/30 09:18:12;;;;;;;75.40;34.60;;;;;;;-0.62;71.30;96581.27;2259285;79;21141;-79
2021/01/30 09:21:15;;;;;;;85.07;38.57;;;;;;;-0.62;71.45;96583.83;2259227;79;21149;-78
2021/01/30 09:24:16;;;;;;;152.37;61.37;;;;;;;-0.62;71.52;96588.54;2259066;79;21102;-78
2021/01/30 09:27:17;;;;;;;77.60;36.47;;;;;;;-0.54;71.40;96590.83;2259613;79;21114;-80
2021/01/30 09:30:18;;;;;;;85.10;41.40;;;;;;;-0.35;71.18;96593.31;2259601;79;21125;-78
2021/01/30 09:33:19;;;;;;;49.30;28.83;;;;;;;-0.20;71.09;96598.72;2258881;79;21161;-77
2021/01/30 09:36:20;;;;;;;44.10;24.63;;;;;;;-0.22;70.66;96605.52;2259345;79;21353;-79
2021/01/30 09:39:21;;;;;;;45.37;24.77;;;;;;;-0.29;70.71;96603.67;2259871;79;21136;-79
2021/01/30 09:42:22;;;;;;;31.13;19.30;;;;;;;-0.33;70.57;96618.56;2258762;79;21118;-79
2021/01/30 09:45:24;;;;;;;32.00;18.43;;;;;;;-0.35;70.70;96618.53;2258602;79;21138;-78
2021/01/30 09:48:25;;;;;;;28.30;18.53;;;;;;;-0.25;70.78;96615.72;2259330;79;21146;-79
2021/01/30 09:51:26;;;;;;;34.93;19.17;;;;;;;-0.32;70.13;96622.43;2258769;79;21126;-78
2021/01/30 09:54:28;;;;;;;32.27;17.57;;;;;;;-0.38;70.76;96626.58;2259477;79;21094;-79
2021/01/30 09:57:29;;;;;;;33.90;18.93;;;;;;;-0.47;70.63;96628.97;2259074;79;21126;-80
2021/01/30 10:00:30;;;;;;;36.23;20.17;;;;;;;-0.57;70.75;96633.47;2264930;79;21121;-77
2021/01/30 10:03:31;;;;;;;42.77;24.37;;;;;;;-0.66;70.87;96633.73;2265761;79;21145;-78
2021/01/30 10:06:32;;;;;;;44.47;23.20;;;;;;;-0.70;70.68;96638.35;2265782;79;21125;-80
2021/01/30 10:09:33;;;;;;;43.00;24.13;;;;;;;-0.82;70.77;96652.19;2265665;79;21109;-79
2021/01/30 10:12:34;;;;;;;41.97;23.80;;;;;;;-0.90;70.89;96657.95;2266203;79;21176;-79
2021/01/30 10:15:35;;;;;;;43.37;24.20;;;;;;;-0.88;71.22;96652.03;2266206;78;21375;-80
2021/01/30 10:18:37;;;;;;;43.50;23.83;;;;;;;-0.67;71.10;96655.48;2265486;79;21085;-79
2021/01/30 10:21:38;;;;;;;43.27;22.70;;;;;;;-0.50;70.62;96665.66;2266314;79;21137;-78
2021/01/30 10:24:39;;;;;;;34.43;19.80;;;;;;;-0.31;70.50;96656.63;2266445;79;21141;-78
2021/01/30 10:27:40;;;;;;;32.27;19.03;;;;;;;-0.26;69.69;96663.98;2266215;79;21826;-77
2021/01/30 10:30:41;;;;;;;35.43;19.47;;;;;;;-0.21;69.90;96667.49;2266359;79;21164;-78
2021/01/30 10:33:42;;;;;;;38.50;20.53;;;;;;;-0.19;69.39;96672.23;2265816;79;21279;-79
2021/01/30 10:36:43;;;;;;;36.43;19.30;;;;;;;-0.28;69.54;96686.16;2264481;79;21121;-79
2021/01/30 10:39:44;;;;;;;31.93;18.63;;;;;;;-0.35;69.47;96690.30;2264904;79;21447;-78
2021/01/30 10:42:45;;;;;;;38.17;20.43;;;;;;;-0.32;69.74;96701.90;2265269;79;21125;-82
2021/01/30 10:45:46;;;;;;;40.13;18.83;;;;;;;-0.37;69.74;96709.05;2265603;79;21137;-80
2021/01/30 10:48:48;;;;;;;31.90;17.00;;;;;;;-0.34;70.06;96701.42;2265708;79;21109;-80
2021/01/30 10:51:49;;;;;;;30.87;16.83;;;;;;;-0.26;69.75;96705.00;2264513;79;21287;-80
2021/01/30 10:54:50;;;;;;;32.00;17.83;;;;;;;-0.38;69.98;96728.70;2265717;79;21164;-81
2021/01/30 10:57:51;;;;;;;24.37;15.40;;;;;;;-0.58;70.37;96740.64;2265749;79;21149;-80
2021/01/30 11:00:52;;;;;;;37.67;20.73;;;;;;;-0.79;70.83;96745.75;2259963;79;21184;-78
2021/01/30 11:03:54;;;;;;;36.47;20.47;;;;;;;-1.00;71.67;96766.59;2258003;79;21102;-80
2021/01/30 11:06:54;;;;;;;44.27;22.37;;;;;;;-1.20;72.30;96779.33;2258314;79;21114;-79
2021/01/30 11:09:57;;;;;;;37.97;20.97;;;;;;;-1.33;72.86;96774.33;2257482;79;21970;-80
2021/01/30 11:12:58;;;;;;;32.23;18.30;;;;;;;-1.30;72.73;96773.53;2258030;79;21165;-79
2021/01/30 11:15:59;;;;;;;25.60;16.00;;;;;;;-1.07;72.45;96765.99;2257614;79;21125;-79
2021/01/30 11:19:00;;;;;;;31.40;18.93;;;;;;;-0.76;71.73;96772.72;2257395;79;21135;-79
2021/01/30 11:22:01;;;;;;;33.83;19.13;;;;;;;-0.67;71.51;96772.06;2258341;79;21511;-81
2021/01/30 11:25:02;;;;;;;35.70;22.70;;;;;;;-0.71;71.39;96792.91;2258424;79;21153;-80
2021/01/30 11:28:03;;;;;;;43.43;23.87;;;;;;;-0.77;71.28;96804.30;2258507;79;21106;-81
2021/01/30 11:31:04;;;;;;;66.77;31.60;;;;;;;-0.91;71.81;96822.28;2259019;79;21157;-80
2021/01/30 11:34:05;;;;;;;53.23;25.87;;;;;;;-1.00;72.11;96836.14;2259444;79;21399;-82
2021/01/30 11:37:06;;;;;;;107.53;40.63;;;;;;;-1.00;72.29;96842.55;2258896;79;21133;-81
2021/01/30 11:40:07;;;;;;;108.73;43.87;;;;;;;-0.93;72.31;96849.97;2258230;79;21109;-79
2021/01/30 11:43:09;;;;;;;95.10;39.87;;;;;;;-0.83;72.23;96854.09;2259585;79;21133;-81
2021/01/30 11:46:10;;;;;;;38.83;22.23;;;;;;;-0.80;72.02;96859.71;2259611;79;21460;-80
2021/01/30 11:49:12;;;;;;;34.83;18.87;;;;;;;-0.77;71.87;96876.02;2259185;79;21439;-81
2021/01/30 11:52:13;;;;;;;41.73;20.80;;;;;;;-0.82;71.23;96876.33;2259553;79;21239;-81
2021/01/30 11:55:14;;;;;;;39.40;21.13;;;;;;;-0.83;71.43;96878.44;2258593;79;21125;-80
2021/01/30 11:58:15;;;;;;;46.17;24.53;;;;;;;-0.78;71.80;96881.11;2259181;79;21475;-79
2021/01/30 12:01:16;;;;;;;45.27;23.87;;;;;;;-0.69;71.53;96883.48;2262421;79;21125;-80
2021/01/30 12:04:17;;;;;;;48.93;26.20;;;;;;;-0.68;70.67;96902.28;2263100;79;21256;-80
2021/01/30 12:07:18;;;;;;;54.37;25.93;;;;;;;-0.69;70.83;96911.66;2261964;79;21243;-80
2021/01/30 12:10:19;;;;;;;49.30;26.83;;;;;;;-0.66;70.86;96911.73;2263466;79;21086;-80
2021/01/30 12:13:21;;;;;;;62.60;29.83;;;;;;;-0.62;70.60;96926.77;2264129;79;21157;-80
2021/01/30 12:16:22;;;;;;;66.73;37.17;;;;;;;-0.75;70.94;96927.30;2263576;79;21545;-79
2021/01/30 12:19:23;;;;;;;75.93;38.60;;;;;;;-0.93;71.10;96940.47;2262920;79;21141;-81
2021/01/30 12:22:24;;;;;;;74.97;39.67;;;;;;;-1.05;71.46;96947.84;2263795;79;21101;-80
2021/01/30 12:25:25;;;;;;;80.37;42.63;;;;;;;-0.99;71.26;96951.84;2264072;79;21263;-80
2021/01/30 12:28:26;;;;;;;80.77;44.77;;;;;;;-0.76;70.86;96949.48;2263445;79;21256;-79
2021/01/30 12:31:27;;;;;;;79.77;45.03;;;;;;;-0.78;69.71;96953.70;2263255;79;21287;-82
2021/01/30 12:34:28;;;;;;;82.20;45.47;;;;;;;-0.78;70.35;96967.80;2263529;79;21149;-81
2021/01/30 12:37:29;;;;;;;82.27;45.07;;;;;;;-0.66;70.44;96963.40;2263697;79;21256;-78
2021/01/30 12:40:30;;;;;;;77.97;43.60;;;;;;;-0.45;69.95;96976.74;2263212;79;21395;-81
2021/01/30 12:43:31;;;;;;;78.00;44.97;;;;;;;-0.41;69.40;96985.38;2263926;79;21240;-80
2021/01/30 12:46:33;;;;;;;72.37;40.73;;;;;;;-0.52;69.34;96994.49;2263480;79;21495;-78
2021/01/30 12:49:35;;;;;;;75.07;41.83;;;;;;;-0.61;69.58;96999.39;2263129;79;21255;-81
2021/01/30 12:52:36;;;;;;;73.87;40.83;;;;;;;-0.72;69.66;97014.07;2263521;79;21276;-79
2021/01/30 12:58:57;;;;;;;81.27;46.60;;;;;;;-1.03;69.96;97026.44;2263346;79;21166;-80
2021/01/30 13:01:58;;;;;;;89.97;50.80;;;;;;;-1.19;70.63;97042.60;2262946;79;21534;-79
2021/01/30 13:04:59;;;;;;;100.00;54.23;;;;;;;-1.26;71.21;97039.00;2262419;79;21129;-77
2021/01/30 13:08:01;;;;;;;90.30;50.47;;;;;;;-1.18;71.46;97049.46;2262346;79;21244;-77
2021/01/30 13:11:02;;;;;;;96.50;54.47;;;;;;;-1.14;71.15;97044.88;2262795;79;21259;-82
2021/01/30 13:14:03;;;;;;;90.97;50.47;;;;;;;-1.21;71.28;97054.08;2263072;79;21286;-78
2021/01/30 13:17:04;;;;;;;81.90;46.40;;;;;;;-1.25;71.55;97053.53;2263673;79;21281;-79
2021/01/30 13:20:05;;;;;;;88.60;50.00;;;;;;;-1.26;71.62;97049.24;2263157;79;21123;-80
2021/01/30 13:23:06;;;;;;;94.93;51.97;;;;;;;-1.32;71.76;97053.77;2263120;79;21531;-80
2021/01/30 13:26:07;;;;;;;87.20;49.10;;;;;;;-1.29;71.92;97059.39;2263011;79;21252;-79
2021/01/30 13:29:08;;;;;;;85.37;48.27;;;;;;;-1.21;71.59;97056.64;2263314;79;21256;-79
2021/01/30 13:32:10;;;;;;;85.23;46.80;;;;;;;-1.18;71.56;97063.55;2263794;79;21299;-77
2021/01/30 13:35:11;;;;;;;92.77;49.47;;;;;;;-1.21;71.41;97068.16;2263569;79;21245;-79
2021/01/30 13:38:12;;;;;;;70.93;41.83;;;;;;;-1.26;71.61;97081.66;2263290;79;21248;-78
2021/01/30 13:41:13;;;;;;;76.73;43.93;;;;;;;-1.33;71.95;97090.43;2263713;79;21625;-78
2021/01/30 13:44:14;;;;;;;89.20;47.97;;;;;;;-1.38;72.11;97097.52;2264039;79;21129;-78
2021/01/30 13:47:15;;;;;;;90.57;47.53;;;;;;;-1.44;72.44;97107.16;2264071;79;21515;-78
2021/01/30 13:50:17;;;;;;;87.00;47.83;;;;;;;-1.47;72.63;97117.30;2263863;79;21253;-79
2021/01/30 13:53:18;;;;;;;83.17;44.30;;;;;;;-1.50;72.88;97120.17;2262981;79;21291;-78
2021/01/30 13:56:19;;;;;;;80.50;44.50;;;;;;;-1.57;73.00;97115.28;2263795;79;21412;-78